sensor_id;sensor_type;location;lat;lon;timestamp;P1;durP1;ratioP1;P2;durP2;ratioP2
52274;SDS011;38228;50.940;4.024;2024-02-21T00:01:49;24.73;;;9.98;;
52274;SDS011;38228;50.940;4.024;2024-02-21T00:04:15;27.55;;;9.57;;
52274;SDS011;38228;50.940;4.024;2024-02-21T00:06:41;30.33;;;9.73;;
52274;SDS011;38228;50.940;4.024;2024-02-21T00:09:06;30.17;;;9.45;;
52274;SDS011;38228;50.940;4.024;2024-02-21T00:11:34;27.85;;;10.02;;
52274;SDS011;38228;50.940;4.024;2024-02-21T00:14:00;29.27;;;10.13;;
52274;SDS011;38228;50.940;4.024;2024-02-21T00:16:26;27.58;;;9.93;;
52274;SDS011;38228;50.940;4.024;2024-02-21T00:18:51;31.45;;;11.13;;
52274;SDS011;38228;50.940;4.024;2024-02-21T00:21:17;27.33;;;9.85;;
52274;SDS011;38228;50.940;4.024;2024-02-21T00:23:46;31.98;;;11.63;;
52274;SDS011;38228;50.940;4.024;2024-02-21T00:26:12;34.55;;;10.27;;
52274;SDS011;38228;50.940;4.024;2024-02-21T00:28:41;31.42;;;10.38;;
52274;SDS011;38228;50.940;4.024;2024-02-21T00:31:06;31.48;;;10.40;;
52274;SDS011;38228;50.940;4.024;2024-02-21T00:33:32;34.50;;;10.38;;
52274;SDS011;38228;50.940;4.024;2024-02-21T00:35:58;28.75;;;9.18;;
52274;SDS011;38228;50.940;4.024;2024-02-21T00:38:23;38.08;;;11.15;;
52274;SDS011;38228;50.940;4.024;2024-02-21T00:40:49;29.17;;;9.02;;
52274;SDS011;38228;50.940;4.024;2024-02-21T00:43:15;35.30;;;10.10;;
52274;SDS011;38228;50.940;4.024;2024-02-21T00:45:40;34.70;;;10.45;;
52274;SDS011;38228;50.940;4.024;2024-02-21T00:48:06;33.63;;;9.45;;
52274;SDS011;38228;50.940;4.024;2024-02-21T00:50:32;29.90;;;9.88;;
52274;SDS011;38228;50.940;4.024;2024-02-21T00:52:58;33.83;;;9.40;;
52274;SDS011;38228;50.940;4.024;2024-02-21T00:55:24;28.45;;;8.77;;
52274;SDS011;38228;50.940;4.024;2024-02-21T00:57:49;29.20;;;9.43;;
52274;SDS011;38228;50.940;4.024;2024-02-21T01:00:15;33.05;;;10.20;;
52274;SDS011;38228;50.940;4.024;2024-02-21T01:02:41;26.60;;;8.93;;
52274;SDS011;38228;50.940;4.024;2024-02-21T01:05:07;29.77;;;9.75;;
52274;SDS011;38228;50.940;4.024;2024-02-21T01:07:32;30.60;;;9.48;;
52274;SDS011;38228;50.940;4.024;2024-02-21T01:09:58;26.90;;;9.57;;
52274;SDS011;38228;50.940;4.024;2024-02-21T01:12:24;27.58;;;9.05;;
52274;SDS011;38228;50.940;4.024;2024-02-21T01:14:50;32.13;;;9.75;;
52274;SDS011;38228;50.940;4.024;2024-02-21T01:17:15;27.45;;;9.70;;
52274;SDS011;38228;50.940;4.024;2024-02-21T01:19:41;35.50;;;10.18;;
52274;SDS011;38228;50.940;4.024;2024-02-21T01:22:06;36.58;;;9.65;;
52274;SDS011;38228;50.940;4.024;2024-02-21T01:24:32;28.73;;;10.40;;
52274;SDS011;38228;50.940;4.024;2024-02-21T01:26:58;42.53;;;10.07;;
52274;SDS011;38228;50.940;4.024;2024-02-21T01:29:24;31.17;;;10.23;;
52274;SDS011;38228;50.940;4.024;2024-02-21T01:31:49;33.35;;;10.77;;
52274;SDS011;38228;50.940;4.024;2024-02-21T01:34:15;37.35;;;10.90;;
52274;SDS011;38228;50.940;4.024;2024-02-21T01:36:41;33.58;;;10.73;;
52274;SDS011;38228;50.940;4.024;2024-02-21T01:39:07;29.88;;;9.88;;
52274;SDS011;38228;50.940;4.024;2024-02-21T01:41:33;32.30;;;10.90;;
52274;SDS011;38228;50.940;4.024;2024-02-21T01:43:58;31.58;;;10.00;;
52274;SDS011;38228;50.940;4.024;2024-02-21T01:46:24;31.33;;;10.13;;
52274;SDS011;38228;50.940;4.024;2024-02-21T01:48:55;31.05;;;9.77;;
52274;SDS011;38228;50.940;4.024;2024-02-21T01:51:21;42.08;;;10.90;;
52274;SDS011;38228;50.940;4.024;2024-02-21T01:53:47;25.85;;;10.00;;
52274;SDS011;38228;50.940;4.024;2024-02-21T01:56:15;34.90;;;10.82;;
52274;SDS011;38228;50.940;4.024;2024-02-21T01:58:42;35.13;;;10.43;;
52274;SDS011;38228;50.940;4.024;2024-02-21T02:01:09;33.17;;;10.70;;
52274;SDS011;38228;50.940;4.024;2024-02-21T02:03:35;34.67;;;10.48;;
52274;SDS011;38228;50.940;4.024;2024-02-21T02:06:01;27.13;;;10.45;;
52274;SDS011;38228;50.940;4.024;2024-02-21T02:08:27;34.28;;;11.95;;
52274;SDS011;38228;50.940;4.024;2024-02-21T02:10:53;31.88;;;10.50;;
52274;SDS011;38228;50.940;4.024;2024-02-21T02:13:19;33.97;;;11.55;;
52274;SDS011;38228;50.940;4.024;2024-02-21T02:15:45;27.60;;;10.80;;
52274;SDS011;38228;50.940;4.024;2024-02-21T02:18:13;28.88;;;10.10;;
52274;SDS011;38228;50.940;4.024;2024-02-21T02:20:40;30.45;;;10.90;;
52274;SDS011;38228;50.940;4.024;2024-02-21T02:23:10;31.58;;;10.95;;
52274;SDS011;38228;50.940;4.024;2024-02-21T02:25:38;26.85;;;9.85;;
52274;SDS011;38228;50.940;4.024;2024-02-21T02:28:06;40.55;;;11.13;;
52274;SDS011;38228;50.940;4.024;2024-02-21T02:30:33;30.75;;;10.68;;
52274;SDS011;38228;50.940;4.024;2024-02-21T02:33:02;27.45;;;10.07;;
52274;SDS011;38228;50.940;4.024;2024-02-21T02:35:28;28.30;;;10.80;;
52274;SDS011;38228;50.940;4.024;2024-02-21T02:37:54;30.98;;;10.30;;
52274;SDS011;38228;50.940;4.024;2024-02-21T02:40:20;34.38;;;11.10;;
52274;SDS011;38228;50.940;4.024;2024-02-21T02:42:45;31.92;;;10.75;;
52274;SDS011;38228;50.940;4.024;2024-02-21T02:45:13;24.83;;;10.43;;
52274;SDS011;38228;50.940;4.024;2024-02-21T02:47:46;26.45;;;9.77;;
52274;SDS011;38228;50.940;4.024;2024-02-21T02:50:12;28.02;;;9.75;;
52274;SDS011;38228;50.940;4.024;2024-02-21T02:52:38;31.75;;;11.13;;
52274;SDS011;38228;50.940;4.024;2024-02-21T02:55:04;33.85;;;10.85;;
52274;SDS011;38228;50.940;4.024;2024-02-21T02:57:30;31.50;;;9.95;;
52274;SDS011;38228;50.940;4.024;2024-02-21T02:59:57;31.30;;;11.30;;
52274;SDS011;38228;50.940;4.024;2024-02-21T03:02:22;33.28;;;10.85;;
52274;SDS011;38228;50.940;4.024;2024-02-21T03:04:48;32.63;;;10.95;;
52274;SDS011;38228;50.940;4.024;2024-02-21T03:07:14;32.53;;;10.35;;
52274;SDS011;38228;50.940;4.024;2024-02-21T03:09:40;30.13;;;11.13;;
52274;SDS011;38228;50.940;4.024;2024-02-21T03:12:08;26.10;;;10.52;;
52274;SDS011;38228;50.940;4.024;2024-02-21T03:14:34;27.83;;;10.57;;
52274;SDS011;38228;50.940;4.024;2024-02-21T03:17:00;35.22;;;11.52;;
52274;SDS011;38228;50.940;4.024;2024-02-21T03:19:26;28.80;;;10.38;;
52274;SDS011;38228;50.940;4.024;2024-02-21T03:21:52;32.95;;;11.05;;
52274;SDS011;38228;50.940;4.024;2024-02-21T03:24:21;37.30;;;12.00;;
52274;SDS011;38228;50.940;4.024;2024-02-21T03:26:47;27.30;;;10.90;;
52274;SDS011;38228;50.940;4.024;2024-02-21T03:29:14;28.70;;;10.80;;
52274;SDS011;38228;50.940;4.024;2024-02-21T03:31:41;32.97;;;11.07;;
52274;SDS011;38228;50.940;4.024;2024-02-21T03:34:07;27.77;;;11.57;;
52274;SDS011;38228;50.940;4.024;2024-02-21T03:36:33;33.28;;;11.52;;
52274;SDS011;38228;50.940;4.024;2024-02-21T03:38:59;34.25;;;12.05;;
52274;SDS011;38228;50.940;4.024;2024-02-21T03:41:25;29.38;;;11.50;;
52274;SDS011;38228;50.940;4.024;2024-02-21T03:43:51;29.00;;;10.77;;
52274;SDS011;38228;50.940;4.024;2024-02-21T03:46:17;34.10;;;11.43;;
52274;SDS011;38228;50.940;4.024;2024-02-21T03:48:42;36.72;;;12.18;;
52274;SDS011;38228;50.940;4.024;2024-02-21T03:51:08;34.17;;;11.32;;
52274;SDS011;38228;50.940;4.024;2024-02-21T03:53:33;33.78;;;12.43;;
52274;SDS011;38228;50.940;4.024;2024-02-21T03:56:02;29.25;;;11.95;;
52274;SDS011;38228;50.940;4.024;2024-02-21T03:58:32;33.40;;;12.63;;
52274;SDS011;38228;50.940;4.024;2024-02-21T04:01:01;30.85;;;11.88;;
52274;SDS011;38228;50.940;4.024;2024-02-21T04:03:28;29.27;;;11.90;;
52274;SDS011;38228;50.940;4.024;2024-02-21T04:05:54;33.40;;;12.98;;
52274;SDS011;38228;50.940;4.024;2024-02-21T04:08:19;31.25;;;12.52;;
52274;SDS011;38228;50.940;4.024;2024-02-21T04:10:45;32.53;;;11.98;;
52274;SDS011;38228;50.940;4.024;2024-02-21T04:13:12;32.08;;;12.57;;
52274;SDS011;38228;50.940;4.024;2024-02-21T04:15:37;30.90;;;11.60;;
52274;SDS011;38228;50.940;4.024;2024-02-21T04:18:03;28.98;;;12.85;;
52274;SDS011;38228;50.940;4.024;2024-02-21T04:20:29;32.83;;;11.88;;
52274;SDS011;38228;50.940;4.024;2024-02-21T04:22:55;36.40;;;12.57;;
52274;SDS011;38228;50.940;4.024;2024-02-21T04:25:21;27.23;;;12.57;;
52274;SDS011;38228;50.940;4.024;2024-02-21T04:27:47;38.00;;;13.27;;
52274;SDS011;38228;50.940;4.024;2024-02-21T04:30:13;30.85;;;12.23;;
52274;SDS011;38228;50.940;4.024;2024-02-21T04:32:39;31.58;;;12.20;;
52274;SDS011;38228;50.940;4.024;2024-02-21T04:35:05;32.97;;;12.07;;
52274;SDS011;38228;50.940;4.024;2024-02-21T04:37:32;29.60;;;11.40;;
52274;SDS011;38228;50.940;4.024;2024-02-21T04:39:57;28.75;;;12.05;;
52274;SDS011;38228;50.940;4.024;2024-02-21T04:42:23;30.63;;;11.82;;
52274;SDS011;38228;50.940;4.024;2024-02-21T04:44:49;26.25;;;12.05;;
52274;SDS011;38228;50.940;4.024;2024-02-21T04:47:15;35.15;;;11.73;;
52274;SDS011;38228;50.940;4.024;2024-02-21T04:49:40;28.23;;;11.85;;
52274;SDS011;38228;50.940;4.024;2024-02-21T04:52:06;26.13;;;11.30;;
52274;SDS011;38228;50.940;4.024;2024-02-21T04:54:32;38.53;;;12.55;;
52274;SDS011;38228;50.940;4.024;2024-02-21T04:57:00;34.38;;;12.00;;
52274;SDS011;38228;50.940;4.024;2024-02-21T04:59:25;28.70;;;11.57;;
52274;SDS011;38228;50.940;4.024;2024-02-21T05:01:51;28.05;;;11.35;;
52274;SDS011;38228;50.940;4.024;2024-02-21T05:04:17;33.05;;;12.75;;
52274;SDS011;38228;50.940;4.024;2024-02-21T05:06:43;30.30;;;11.27;;
52274;SDS011;38228;50.940;4.024;2024-02-21T05:09:09;31.33;;;11.50;;
52274;SDS011;38228;50.940;4.024;2024-02-21T05:11:35;28.83;;;12.65;;
52274;SDS011;38228;50.940;4.024;2024-02-21T05:14:01;29.77;;;11.32;;
52274;SDS011;38228;50.940;4.024;2024-02-21T05:16:27;27.30;;;10.30;;
52274;SDS011;38228;50.940;4.024;2024-02-21T05:18:53;28.10;;;11.48;;
52274;SDS011;38228;50.940;4.024;2024-02-21T05:21:19;22.92;;;10.82;;
52274;SDS011;38228;50.940;4.024;2024-02-21T05:23:44;27.00;;;11.35;;
52274;SDS011;38228;50.940;4.024;2024-02-21T05:26:10;23.33;;;10.30;;
52274;SDS011;38228;50.940;4.024;2024-02-21T05:28:36;22.60;;;10.07;;
52274;SDS011;38228;50.940;4.024;2024-02-21T05:31:01;26.30;;;11.45;;
52274;SDS011;38228;50.940;4.024;2024-02-21T05:33:27;24.20;;;10.52;;
52274;SDS011;38228;50.940;4.024;2024-02-21T05:35:53;29.52;;;10.80;;
52274;SDS011;38228;50.940;4.024;2024-02-21T05:38:19;25.33;;;10.43;;
52274;SDS011;38228;50.940;4.024;2024-02-21T05:40:44;27.85;;;11.25;;
52274;SDS011;38228;50.940;4.024;2024-02-21T05:43:10;25.00;;;10.40;;
52274;SDS011;38228;50.940;4.024;2024-02-21T05:45:36;26.88;;;11.35;;
52274;SDS011;38228;50.940;4.024;2024-02-21T05:48:03;20.88;;;10.07;;
52274;SDS011;38228;50.940;4.024;2024-02-21T05:50:29;23.42;;;10.02;;
52274;SDS011;38228;50.940;4.024;2024-02-21T05:52:55;26.45;;;10.35;;
52274;SDS011;38228;50.940;4.024;2024-02-21T05:55:21;26.00;;;10.02;;
52274;SDS011;38228;50.940;4.024;2024-02-21T05:57:47;27.33;;;10.38;;
52274;SDS011;38228;50.940;4.024;2024-02-21T06:00:13;24.67;;;11.30;;
52274;SDS011;38228;50.940;4.024;2024-02-21T06:02:40;23.77;;;10.25;;
52274;SDS011;38228;50.940;4.024;2024-02-21T06:05:06;29.27;;;10.90;;
52274;SDS011;38228;50.940;4.024;2024-02-21T06:07:32;21.90;;;10.43;;
52274;SDS011;38228;50.940;4.024;2024-02-21T06:09:58;26.67;;;10.35;;
52274;SDS011;38228;50.940;4.024;2024-02-21T06:12:25;21.92;;;9.60;;
52274;SDS011;38228;50.940;4.024;2024-02-21T06:14:50;23.60;;;10.15;;
52274;SDS011;38228;50.940;4.024;2024-02-21T06:17:17;24.00;;;9.68;;
52274;SDS011;38228;50.940;4.024;2024-02-21T06:19:43;22.20;;;10.32;;
52274;SDS011;38228;50.940;4.024;2024-02-21T06:22:09;22.30;;;9.77;;
52274;SDS011;38228;50.940;4.024;2024-02-21T06:24:35;19.40;;;9.63;;
52274;SDS011;38228;50.940;4.024;2024-02-21T06:27:02;24.98;;;10.18;;
52274;SDS011;38228;50.940;4.024;2024-02-21T06:29:28;19.60;;;10.07;;
52274;SDS011;38228;50.940;4.024;2024-02-21T06:31:54;22.77;;;9.88;;
52274;SDS011;38228;50.940;4.024;2024-02-21T06:34:19;22.75;;;10.32;;
52274;SDS011;38228;50.940;4.024;2024-02-21T06:36:45;19.85;;;9.95;;
52274;SDS011;38228;50.940;4.024;2024-02-21T06:39:11;23.17;;;10.50;;
52274;SDS011;38228;50.940;4.024;2024-02-21T06:41:37;24.30;;;10.55;;
52274;SDS011;38228;50.940;4.024;2024-02-21T06:44:03;25.13;;;11.05;;
52274;SDS011;38228;50.940;4.024;2024-02-21T06:46:29;24.50;;;10.15;;
52274;SDS011;38228;50.940;4.024;2024-02-21T06:48:55;18.83;;;10.10;;
52274;SDS011;38228;50.940;4.024;2024-02-21T06:51:21;24.23;;;10.88;;
52274;SDS011;38228;50.940;4.024;2024-02-21T06:53:48;23.92;;;10.18;;
52274;SDS011;38228;50.940;4.024;2024-02-21T06:56:13;18.45;;;10.13;;
52274;SDS011;38228;50.940;4.024;2024-02-21T06:58:39;20.90;;;10.95;;
52274;SDS011;38228;50.940;4.024;2024-02-21T07:01:05;22.27;;;10.73;;
52274;SDS011;38228;50.940;4.024;2024-02-21T07:03:32;21.50;;;10.20;;
52274;SDS011;38228;50.940;4.024;2024-02-21T07:05:57;19.63;;;10.63;;
52274;SDS011;38228;50.940;4.024;2024-02-21T07:08:23;20.08;;;10.80;;
52274;SDS011;38228;50.940;4.024;2024-02-21T07:10:49;19.50;;;9.88;;
52274;SDS011;38228;50.940;4.024;2024-02-21T07:13:14;17.23;;;9.98;;
52274;SDS011;38228;50.940;4.024;2024-02-21T07:15:41;20.05;;;10.38;;
52274;SDS011;38228;50.940;4.024;2024-02-21T07:18:07;15.85;;;9.75;;
52274;SDS011;38228;50.940;4.024;2024-02-21T07:20:32;18.88;;;9.90;;
52274;SDS011;38228;50.940;4.024;2024-02-21T07:22:59;24.80;;;10.82;;
52274;SDS011;38228;50.940;4.024;2024-02-21T07:25:24;18.50;;;10.25;;
52274;SDS011;38228;50.940;4.024;2024-02-21T07:27:50;16.92;;;10.13;;
52274;SDS011;38228;50.940;4.024;2024-02-21T07:30:16;19.77;;;10.68;;
52274;SDS011;38228;50.940;4.024;2024-02-21T07:32:42;19.50;;;10.32;;
52274;SDS011;38228;50.940;4.024;2024-02-21T07:35:07;20.77;;;10.77;;
52274;SDS011;38228;50.940;4.024;2024-02-21T07:37:37;19.83;;;11.23;;
52274;SDS011;38228;50.940;4.024;2024-02-21T07:40:06;21.88;;;10.93;;
52274;SDS011;38228;50.940;4.024;2024-02-21T07:42:37;18.45;;;11.57;;
52274;SDS011;38228;50.940;4.024;2024-02-21T07:45:03;18.10;;;11.60;;
52274;SDS011;38228;50.940;4.024;2024-02-21T07:47:29;24.30;;;11.90;;
52274;SDS011;38228;50.940;4.024;2024-02-21T07:49:54;21.20;;;11.43;;
52274;SDS011;38228;50.940;4.024;2024-02-21T07:52:20;21.38;;;11.73;;
52274;SDS011;38228;50.940;4.024;2024-02-21T07:54:46;24.70;;;12.73;;
52274;SDS011;38228;50.940;4.024;2024-02-21T07:57:11;20.48;;;12.05;;
52274;SDS011;38228;50.940;4.024;2024-02-21T07:59:37;20.42;;;11.25;;
52274;SDS011;38228;50.940;4.024;2024-02-21T08:02:03;19.83;;;11.75;;
52274;SDS011;38228;50.940;4.024;2024-02-21T08:04:31;19.45;;;11.05;;
52274;SDS011;38228;50.940;4.024;2024-02-21T08:06:57;23.17;;;11.35;;
52274;SDS011;38228;50.940;4.024;2024-02-21T08:09:27;24.35;;;11.88;;
52274;SDS011;38228;50.940;4.024;2024-02-21T08:11:56;22.23;;;11.25;;
52274;SDS011;38228;50.940;4.024;2024-02-21T08:14:23;23.58;;;12.27;;
52274;SDS011;38228;50.940;4.024;2024-02-21T08:16:50;23.95;;;12.40;;
52274;SDS011;38228;50.940;4.024;2024-02-21T08:19:18;23.23;;;12.20;;
52274;SDS011;38228;50.940;4.024;2024-02-21T08:21:44;26.98;;;13.10;;
52274;SDS011;38228;50.940;4.024;2024-02-21T08:24:12;21.60;;;10.98;;
52274;SDS011;38228;50.940;4.024;2024-02-21T08:26:40;22.55;;;11.30;;
52274;SDS011;38228;50.940;4.024;2024-02-21T08:29:06;21.75;;;11.40;;
52274;SDS011;38228;50.940;4.024;2024-02-21T08:31:32;24.83;;;10.50;;
52274;SDS011;38228;50.940;4.024;2024-02-21T08:33:59;17.90;;;9.55;;
52274;SDS011;38228;50.940;4.024;2024-02-21T08:36:29;22.05;;;10.10;;
52274;SDS011;38228;50.940;4.024;2024-02-21T08:38:59;22.35;;;9.13;;
52274;SDS011;38228;50.940;4.024;2024-02-21T08:41:25;21.58;;;9.48;;
52274;SDS011;38228;50.940;4.024;2024-02-21T08:43:51;16.55;;;9.38;;
52274;SDS011;38228;50.940;4.024;2024-02-21T08:46:19;18.88;;;8.73;;
52274;SDS011;38228;50.940;4.024;2024-02-21T08:48:46;24.40;;;9.52;;
52274;SDS011;38228;50.940;4.024;2024-02-21T08:51:12;21.02;;;9.30;;
52274;SDS011;38228;50.940;4.024;2024-02-21T08:53:38;19.73;;;8.18;;
52274;SDS011;38228;50.940;4.024;2024-02-21T08:56:05;18.80;;;8.90;;
52274;SDS011;38228;50.940;4.024;2024-02-21T08:58:32;15.10;;;8.52;;
52274;SDS011;38228;50.940;4.024;2024-02-21T09:00:58;15.90;;;8.10;;
52274;SDS011;38228;50.940;4.024;2024-02-21T09:03:24;14.52;;;7.40;;
52274;SDS011;38228;50.940;4.024;2024-02-21T09:05:50;16.23;;;7.38;;
52274;SDS011;38228;50.940;4.024;2024-02-21T09:08:16;16.55;;;7.10;;
52274;SDS011;38228;50.940;4.024;2024-02-21T09:10:41;17.08;;;7.03;;
52274;SDS011;38228;50.940;4.024;2024-02-21T09:13:07;13.95;;;6.47;;
52274;SDS011;38228;50.940;4.024;2024-02-21T09:15:34;16.33;;;7.65;;
52274;SDS011;38228;50.940;4.024;2024-02-21T09:18:00;16.88;;;6.60;;
52274;SDS011;38228;50.940;4.024;2024-02-21T09:20:26;14.95;;;6.85;;
52274;SDS011;38228;50.940;4.024;2024-02-21T09:22:51;15.18;;;6.55;;
52274;SDS011;38228;50.940;4.024;2024-02-21T09:25:18;11.27;;;6.28;;
52274;SDS011;38228;50.940;4.024;2024-02-21T09:27:44;16.30;;;6.00;;
52274;SDS011;38228;50.940;4.024;2024-02-21T09:30:10;14.48;;;5.80;;
52274;SDS011;38228;50.940;4.024;2024-02-21T09:32:37;18.48;;;6.45;;
52274;SDS011;38228;50.940;4.024;2024-02-21T09:35:03;13.93;;;5.82;;
52274;SDS011;38228;50.940;4.024;2024-02-21T09:37:32;12.27;;;5.90;;
52274;SDS011;38228;50.940;4.024;2024-02-21T09:39:58;15.40;;;5.90;;
52274;SDS011;38228;50.940;4.024;2024-02-21T09:42:28;12.35;;;5.60;;
52274;SDS011;38228;50.940;4.024;2024-02-21T09:45:15;15.10;;;5.05;;
52274;SDS011;38228;50.940;4.024;2024-02-21T09:50:34;10.98;;;4.80;;
52274;SDS011;38228;50.940;4.024;2024-02-21T09:53:03;13.23;;;5.03;;
52274;SDS011;38228;50.940;4.024;2024-02-21T09:55:31;13.27;;;4.88;;
52274;SDS011;38228;50.940;4.024;2024-02-21T09:57:59;14.30;;;5.68;;
52274;SDS011;38228;50.940;4.024;2024-02-21T10:00:26;11.05;;;5.07;;
52274;SDS011;38228;50.940;4.024;2024-02-21T10:02:53;13.88;;;5.05;;
52274;SDS011;38228;50.940;4.024;2024-02-21T10:05:19;13.65;;;5.50;;
52274;SDS011;38228;50.940;4.024;2024-02-21T10:07:45;13.93;;;5.13;;
52274;SDS011;38228;50.940;4.024;2024-02-21T10:10:11;10.20;;;5.18;;
52274;SDS011;38228;50.940;4.024;2024-02-21T10:12:37;10.40;;;4.60;;
52274;SDS011;38228;50.940;4.024;2024-02-21T10:15:19;14.15;;;5.13;;
52274;SDS011;38228;50.940;4.024;2024-02-21T10:17:49;10.60;;;4.68;;
52274;SDS011;38228;50.940;4.024;2024-02-21T10:20:23;11.70;;;4.93;;
52274;SDS011;38228;50.940;4.024;2024-02-21T10:22:49;16.45;;;5.45;;
52274;SDS011;38228;50.940;4.024;2024-02-21T10:25:37;16.27;;;4.72;;
52274;SDS011;38228;50.940;4.024;2024-02-21T10:28:13;14.32;;;5.18;;
52274;SDS011;38228;50.940;4.024;2024-02-21T10:30:50;12.48;;;4.53;;
52274;SDS011;38228;50.940;4.024;2024-02-21T10:33:17;9.80;;;4.63;;
52274;SDS011;38228;50.940;4.024;2024-02-21T10:35:46;16.13;;;4.40;;
52274;SDS011;38228;50.940;4.024;2024-02-21T10:38:12;10.77;;;5.10;;
52274;SDS011;38228;50.940;4.024;2024-02-21T10:40:38;13.98;;;4.38;;
52274;SDS011;38228;50.940;4.024;2024-02-21T10:43:03;15.80;;;4.35;;
52274;SDS011;38228;50.940;4.024;2024-02-21T10:45:35;11.77;;;4.05;;
52274;SDS011;38228;50.940;4.024;2024-02-21T10:48:03;10.80;;;4.55;;
52274;SDS011;38228;50.940;4.024;2024-02-21T10:50:31;11.32;;;4.25;;
52274;SDS011;38228;50.940;4.024;2024-02-21T10:53:20;14.43;;;4.40;;
52274;SDS011;38228;50.940;4.024;2024-02-21T10:55:54;10.77;;;4.25;;
52274;SDS011;38228;50.940;4.024;2024-02-21T10:58:26;9.23;;;3.70;;
52274;SDS011;38228;50.940;4.024;2024-02-21T11:00:55;13.73;;;3.97;;
52274;SDS011;38228;50.940;4.024;2024-02-21T11:03:21;10.38;;;4.13;;
52274;SDS011;38228;50.940;4.024;2024-02-21T11:05:47;6.95;;;3.50;;
52274;SDS011;38228;50.940;4.024;2024-02-21T11:08:14;12.75;;;4.32;;
52274;SDS011;38228;50.940;4.024;2024-02-21T11:10:40;11.00;;;3.88;;
52274;SDS011;38228;50.940;4.024;2024-02-21T11:13:11;16.85;;;4.20;;
52274;SDS011;38228;50.940;4.024;2024-02-21T11:15:38;11.45;;;4.13;;
52274;SDS011;38228;50.940;4.024;2024-02-21T11:18:04;16.20;;;4.15;;
52274;SDS011;38228;50.940;4.024;2024-02-21T11:20:33;6.80;;;3.25;;
52274;SDS011;38228;50.940;4.024;2024-02-21T11:22:59;10.43;;;3.60;;
52274;SDS011;38228;50.940;4.024;2024-02-21T11:25:26;10.60;;;3.88;;
52274;SDS011;38228;50.940;4.024;2024-02-21T11:27:58;8.55;;;3.50;;
52274;SDS011;38228;50.940;4.024;2024-02-21T11:30:31;13.90;;;3.70;;
52274;SDS011;38228;50.940;4.024;2024-02-21T11:33:05;12.60;;;4.30;;
52274;SDS011;38228;50.940;4.024;2024-02-21T11:38:12;10.65;;;4.05;;
52274;SDS011;38228;50.940;4.024;2024-02-21T11:40:44;9.68;;;4.20;;
52274;SDS011;38228;50.940;4.024;2024-02-21T11:43:10;12.05;;;4.13;;
52274;SDS011;38228;50.940;4.024;2024-02-21T11:45:36;13.05;;;4.38;;
52274;SDS011;38228;50.940;4.024;2024-02-21T11:48:02;9.27;;;4.57;;
52274;SDS011;38228;50.940;4.024;2024-02-21T11:50:30;10.35;;;3.83;;
52274;SDS011;38228;50.940;4.024;2024-02-21T11:52:57;13.32;;;4.20;;
52274;SDS011;38228;50.940;4.024;2024-02-21T11:55:23;10.75;;;4.13;;
52274;SDS011;38228;50.940;4.024;2024-02-21T11:57:49;9.57;;;3.85;;
52274;SDS011;38228;50.940;4.024;2024-02-21T12:00:18;9.07;;;3.72;;
52274;SDS011;38228;50.940;4.024;2024-02-21T12:02:49;10.32;;;3.95;;
52274;SDS011;38228;50.940;4.024;2024-02-21T12:05:15;11.32;;;3.80;;
52274;SDS011;38228;50.940;4.024;2024-02-21T12:07:43;15.48;;;3.95;;
52274;SDS011;38228;50.940;4.024;2024-02-21T12:10:10;8.70;;;3.72;;
52274;SDS011;38228;50.940;4.024;2024-02-21T12:12:39;12.13;;;3.78;;
52274;SDS011;38228;50.940;4.024;2024-02-21T12:15:05;8.82;;;3.25;;
52274;SDS011;38228;50.940;4.024;2024-02-21T12:17:32;9.30;;;3.72;;
52274;SDS011;38228;50.940;4.024;2024-02-21T12:19:59;9.60;;;3.65;;
52274;SDS011;38228;50.940;4.024;2024-02-21T12:22:25;8.82;;;3.72;;
52274;SDS011;38228;50.940;4.024;2024-02-21T12:24:52;8.65;;;3.60;;
52274;SDS011;38228;50.940;4.024;2024-02-21T12:27:17;7.72;;;3.40;;
52274;SDS011;38228;50.940;4.024;2024-02-21T12:29:43;6.72;;;3.30;;
52274;SDS011;38228;50.940;4.024;2024-02-21T12:32:09;12.00;;;3.50;;
52274;SDS011;38228;50.940;4.024;2024-02-21T12:34:35;10.70;;;3.75;;
52274;SDS011;38228;50.940;4.024;2024-02-21T12:37:01;8.75;;;3.50;;
52274;SDS011;38228;50.940;4.024;2024-02-21T12:39:28;9.90;;;3.40;;
52274;SDS011;38228;50.940;4.024;2024-02-21T12:41:54;7.72;;;3.50;;
52274;SDS011;38228;50.940;4.024;2024-02-21T12:44:21;11.52;;;4.38;;
52274;SDS011;38228;50.940;4.024;2024-02-21T12:46:47;10.82;;;3.70;;
52274;SDS011;38228;50.940;4.024;2024-02-21T12:49:17;9.43;;;3.70;;
52274;SDS011;38228;50.940;4.024;2024-02-21T12:51:43;12.27;;;3.83;;
52274;SDS011;38228;50.940;4.024;2024-02-21T12:54:11;10.05;;;3.67;;
52274;SDS011;38228;50.940;4.024;2024-02-21T12:56:37;11.55;;;4.03;;
52274;SDS011;38228;50.940;4.024;2024-02-21T12:59:03;11.95;;;3.70;;
52274;SDS011;38228;50.940;4.024;2024-02-21T13:01:28;5.95;;;3.50;;
52274;SDS011;38228;50.940;4.024;2024-02-21T13:03:54;9.65;;;3.63;;
52274;SDS011;38228;50.940;4.024;2024-02-21T13:06:22;13.82;;;3.60;;
52274;SDS011;38228;50.940;4.024;2024-02-21T13:08:48;11.52;;;4.53;;
52274;SDS011;38228;50.940;4.024;2024-02-21T13:11:13;10.30;;;4.18;;
52274;SDS011;38228;50.940;4.024;2024-02-21T13:13:39;7.82;;;3.95;;
52274;SDS011;38228;50.940;4.024;2024-02-21T13:16:05;9.52;;;3.80;;
52274;SDS011;38228;50.940;4.024;2024-02-21T13:18:32;12.20;;;3.95;;
52274;SDS011;38228;50.940;4.024;2024-02-21T13:20:57;12.15;;;4.20;;
52274;SDS011;38228;50.940;4.024;2024-02-21T13:23:23;9.65;;;4.22;;
52274;SDS011;38228;50.940;4.024;2024-02-21T13:25:49;14.35;;;4.63;;
52274;SDS011;38228;50.940;4.024;2024-02-21T13:28:15;15.93;;;4.68;;
52274;SDS011;38228;50.940;4.024;2024-02-21T13:30:41;10.32;;;4.35;;
52274;SDS011;38228;50.940;4.024;2024-02-21T13:33:08;11.38;;;4.50;;
52274;SDS011;38228;50.940;4.024;2024-02-21T13:35:35;11.15;;;4.88;;
52274;SDS011;38228;50.940;4.024;2024-02-21T13:38:01;10.52;;;4.80;;
52274;SDS011;38228;50.940;4.024;2024-02-21T13:40:28;8.60;;;4.28;;
52274;SDS011;38228;50.940;4.024;2024-02-21T13:42:54;9.90;;;4.10;;
52274;SDS011;38228;50.940;4.024;2024-02-21T13:45:22;12.57;;;5.15;;
52274;SDS011;38228;50.940;4.024;2024-02-21T13:47:47;9.48;;;4.88;;
52274;SDS011;38228;50.940;4.024;2024-02-21T13:50:13;12.27;;;4.57;;
52274;SDS011;38228;50.940;4.024;2024-02-21T13:52:42;14.25;;;5.07;;
52274;SDS011;38228;50.940;4.024;2024-02-21T13:55:08;12.98;;;4.93;;
52274;SDS011;38228;50.940;4.024;2024-02-21T13:57:37;15.80;;;6.00;;
52274;SDS011;38228;50.940;4.024;2024-02-21T14:00:03;11.30;;;5.28;;
52274;SDS011;38228;50.940;4.024;2024-02-21T14:02:29;13.13;;;5.30;;
52274;SDS011;38228;50.940;4.024;2024-02-21T14:04:55;9.90;;;4.70;;
52274;SDS011;38228;50.940;4.024;2024-02-21T14:07:21;12.20;;;4.97;;
52274;SDS011;38228;50.940;4.024;2024-02-21T14:09:47;11.07;;;5.35;;
52274;SDS011;38228;50.940;4.024;2024-02-21T14:12:13;12.93;;;6.20;;
52274;SDS011;38228;50.940;4.024;2024-02-21T14:14:39;12.75;;;5.45;;
52274;SDS011;38228;50.940;4.024;2024-02-21T14:17:05;15.20;;;5.72;;
52274;SDS011;38228;50.940;4.024;2024-02-21T14:19:30;11.68;;;5.57;;
52274;SDS011;38228;50.940;4.024;2024-02-21T14:21:56;12.35;;;6.10;;
52274;SDS011;38228;50.940;4.024;2024-02-21T14:24:22;12.18;;;5.97;;
52274;SDS011;38228;50.940;4.024;2024-02-21T14:26:48;12.05;;;6.07;;
52274;SDS011;38228;50.940;4.024;2024-02-21T14:29:14;10.50;;;5.30;;
52274;SDS011;38228;50.940;4.024;2024-02-21T14:31:40;12.57;;;5.80;;